sensor_id;sensor_type;location;lat;lon;timestamp;P1;durP1;ratioP1;P2;durP2;ratioP2
67816;SDS011;54614;47.576;7.524;2022-07-18T00:01:56;1.50;;;1.40;;
67816;SDS011;54614;47.576;7.524;2022-07-18T00:04:25;1.65;;;1.55;;
67816;SDS011;54614;47.576;7.524;2022-07-18T00:06:52;1.42;;;1.40;;
67816;SDS011;54614;47.576;7.524;2022-07-18T00:09:18;1.55;;;1.45;;
67816;SDS011;54614;47.576;7.524;2022-07-18T00:11:47;1.60;;;1.50;;
67816;SDS011;54614;47.576;7.524;2022-07-18T00:14:13;1.60;;;1.50;;
67816;SDS011;54614;47.576;7.524;2022-07-18T00:16:40;1.50;;;1.50;;
67816;SDS011;54614;47.576;7.524;2022-07-18T00:19:06;4.22;;;1.50;;
67816;SDS011;54614;47.576;7.524;2022-07-18T00:21:32;1.60;;;1.50;;
67816;SDS011;54614;47.576;7.524;2022-07-18T00:23:59;1.67;;;1.58;;
67816;SDS011;54614;47.576;7.524;2022-07-18T00:26:25;1.33;;;1.33;;
67816;SDS011;54614;47.576;7.524;2022-07-18T00:28:51;1.70;;;1.60;;
67816;SDS011;54614;47.576;7.524;2022-07-18T00:31:17;1.88;;;1.50;;
67816;SDS011;54614;47.576;7.524;2022-07-18T00:33:44;1.60;;;1.50;;
67816;SDS011;54614;47.576;7.524;2022-07-18T00:36:10;1.50;;;1.50;;
67816;SDS011;54614;47.576;7.524;2022-07-18T00:38:36;2.53;;;1.50;;
67816;SDS011;54614;47.576;7.524;2022-07-18T00:41:02;1.65;;;1.55;;
67816;SDS011;54614;47.576;7.524;2022-07-18T00:43:29;1.30;;;1.30;;
67816;SDS011;54614;47.576;7.524;2022-07-18T00:45:54;1.30;;;1.30;;
67816;SDS011;54614;47.576;7.524;2022-07-18T00:48:20;1.60;;;1.50;;
67816;SDS011;54614;47.576;7.524;2022-07-18T00:50:48;1.70;;;1.60;;
67816;SDS011;54614;47.576;7.524;2022-07-18T00:53:14;1.30;;;1.30;;
67816;SDS011;54614;47.576;7.524;2022-07-18T00:55:43;1.65;;;1.55;;
67816;SDS011;54614;47.576;7.524;2022-07-18T00:58:11;1.65;;;1.55;;
67816;SDS011;54614;47.576;7.524;2022-07-18T01:00:38;1.40;;;1.40;;
67816;SDS011;54614;47.576;7.524;2022-07-18T01:03:23;1.60;;;1.50;;
67816;SDS011;54614;47.576;7.524;2022-07-18T01:05:50;1.75;;;1.65;;
67816;SDS011;54614;47.576;7.524;2022-07-18T01:08:17;1.40;;;1.40;;
67816;SDS011;54614;47.576;7.524;2022-07-18T01:10:43;1.70;;;1.60;;
67816;SDS011;54614;47.576;7.524;2022-07-18T01:13:09;1.98;;;1.40;;
67816;SDS011;54614;47.576;7.524;2022-07-18T01:15:34;1.50;;;1.50;;
67816;SDS011;54614;47.576;7.524;2022-07-18T01:18:01;1.40;;;1.30;;
67816;SDS011;54614;47.576;7.524;2022-07-18T01:20:29;1.60;;;1.50;;
67816;SDS011;54614;47.576;7.524;2022-07-18T01:22:57;1.40;;;1.33;;
67816;SDS011;54614;47.576;7.524;2022-07-18T01:25:24;1.60;;;1.50;;
67816;SDS011;54614;47.576;7.524;2022-07-18T01:27:51;1.40;;;1.40;;
67816;SDS011;54614;47.576;7.524;2022-07-18T01:30:17;1.30;;;1.30;;
67816;SDS011;54614;47.576;7.524;2022-07-18T01:32:43;1.50;;;1.40;;
67816;SDS011;54614;47.576;7.524;2022-07-18T01:35:09;1.40;;;1.35;;
67816;SDS011;54614;47.576;7.524;2022-07-18T01:37:36;1.40;;;1.40;;
67816;SDS011;54614;47.576;7.524;2022-07-18T01:40:06;1.40;;;1.40;;
67816;SDS011;54614;47.576;7.524;2022-07-18T01:42:36;1.52;;;1.42;;
67816;SDS011;54614;47.576;7.524;2022-07-18T01:45:02;1.40;;;1.40;;
67816;SDS011;54614;47.576;7.524;2022-07-18T01:47:28;1.60;;;1.50;;
67816;SDS011;54614;47.576;7.524;2022-07-18T01:49:54;1.40;;;1.40;;
67816;SDS011;54614;47.576;7.524;2022-07-18T01:52:20;1.42;;;1.42;;
67816;SDS011;54614;47.576;7.524;2022-07-18T01:54:46;1.38;;;1.38;;
67816;SDS011;54614;47.576;7.524;2022-07-18T01:57:11;1.50;;;1.40;;
67816;SDS011;54614;47.576;7.524;2022-07-18T01:59:37;1.45;;;1.45;;
67816;SDS011;54614;47.576;7.524;2022-07-18T02:02:04;1.30;;;1.30;;
67816;SDS011;54614;47.576;7.524;2022-07-18T02:04:30;1.20;;;1.20;;
67816;SDS011;54614;47.576;7.524;2022-07-18T02:07:14;1.50;;;1.40;;
67816;SDS011;54614;47.576;7.524;2022-07-18T02:09:40;1.50;;;1.40;;
67816;SDS011;54614;47.576;7.524;2022-07-18T02:12:06;1.30;;;1.30;;
67816;SDS011;54614;47.576;7.524;2022-07-18T02:14:32;1.40;;;1.30;;
67816;SDS011;54614;47.576;7.524;2022-07-18T02:16:58;1.30;;;1.30;;
67816;SDS011;54614;47.576;7.524;2022-07-18T02:19:24;1.50;;;1.40;;
67816;SDS011;54614;47.576;7.524;2022-07-18T02:21:50;1.40;;;1.40;;
67816;SDS011;54614;47.576;7.524;2022-07-18T02:24:16;1.30;;;1.30;;
67816;SDS011;54614;47.576;7.524;2022-07-18T02:26:41;1.50;;;1.40;;
67816;SDS011;54614;47.576;7.524;2022-07-18T02:29:07;1.55;;;1.45;;
67816;SDS011;54614;47.576;7.524;2022-07-18T02:31:33;1.42;;;1.33;;
67816;SDS011;54614;47.576;7.524;2022-07-18T02:33:59;1.30;;;1.30;;
67816;SDS011;54614;47.576;7.524;2022-07-18T02:36:25;1.30;;;1.30;;
67816;SDS011;54614;47.576;7.524;2022-07-18T02:38:51;1.30;;;1.20;;
67816;SDS011;54614;47.576;7.524;2022-07-18T02:41:17;1.60;;;1.50;;
67816;SDS011;54614;47.576;7.524;2022-07-18T02:43:43;1.60;;;1.50;;
67816;SDS011;54614;47.576;7.524;2022-07-18T02:46:08;1.50;;;1.40;;
67816;SDS011;54614;47.576;7.524;2022-07-18T02:48:34;1.40;;;1.30;;
67816;SDS011;54614;47.576;7.524;2022-07-18T02:51:00;1.30;;;1.30;;
67816;SDS011;54614;47.576;7.524;2022-07-18T02:53:26;1.58;;;1.50;;
67816;SDS011;54614;47.576;7.524;2022-07-18T02:55:52;1.20;;;1.20;;
67816;SDS011;54614;47.576;7.524;2022-07-18T02:58:18;1.50;;;1.50;;
67816;SDS011;54614;47.576;7.524;2022-07-18T03:00:44;1.50;;;1.40;;
67816;SDS011;54614;47.576;7.524;2022-07-18T03:03:09;1.13;;;1.13;;
67816;SDS011;54614;47.576;7.524;2022-07-18T03:05:35;1.60;;;1.50;;
67816;SDS011;54614;47.576;7.524;2022-07-18T03:08:01;1.40;;;1.40;;
67816;SDS011;54614;47.576;7.524;2022-07-18T03:10:28;1.50;;;1.40;;
67816;SDS011;54614;47.576;7.524;2022-07-18T03:12:53;1.17;;;1.17;;
67816;SDS011;54614;47.576;7.524;2022-07-18T03:15:19;1.30;;;1.30;;
67816;SDS011;54614;47.576;7.524;2022-07-18T03:17:45;1.40;;;1.30;;
67816;SDS011;54614;47.576;7.524;2022-07-18T03:20:11;1.58;;;1.50;;
67816;SDS011;54614;47.576;7.524;2022-07-18T03:22:37;1.48;;;1.48;;
67816;SDS011;54614;47.576;7.524;2022-07-18T03:25:03;1.30;;;1.30;;
67816;SDS011;54614;47.576;7.524;2022-07-18T03:27:30;1.40;;;1.40;;
67816;SDS011;54614;47.576;7.524;2022-07-18T03:29:55;1.42;;;1.38;;
67816;SDS011;54614;47.576;7.524;2022-07-18T03:32:21;1.65;;;1.55;;
67816;SDS011;54614;47.576;7.524;2022-07-18T03:34:47;1.40;;;1.40;;
67816;SDS011;54614;47.576;7.524;2022-07-18T03:37:13;1.63;;;1.52;;
67816;SDS011;54614;47.576;7.524;2022-07-18T03:39:39;2.45;;;2.10;;
67816;SDS011;54614;47.576;7.524;2022-07-18T03:42:05;3.83;;;2.00;;
67816;SDS011;54614;47.576;7.524;2022-07-18T03:44:31;3.22;;;2.22;;
67816;SDS011;54614;47.576;7.524;2022-07-18T03:46:57;3.22;;;2.20;;
67816;SDS011;54614;47.576;7.524;2022-07-18T03:49:23;2.58;;;2.20;;
67816;SDS011;54614;47.576;7.524;2022-07-18T03:51:49;3.28;;;2.30;;
67816;SDS011;54614;47.576;7.524;2022-07-18T03:54:14;2.55;;;2.25;;
67816;SDS011;54614;47.576;7.524;2022-07-18T03:56:41;4.13;;;2.45;;
67816;SDS011;54614;47.576;7.524;2022-07-18T03:59:06;3.03;;;2.45;;
67816;SDS011;54614;47.576;7.524;2022-07-18T04:01:32;3.90;;;2.28;;
67816;SDS011;54614;47.576;7.524;2022-07-18T04:03:58;4.32;;;2.45;;
67816;SDS011;54614;47.576;7.524;2022-07-18T04:06:24;4.22;;;2.47;;
67816;SDS011;54614;47.576;7.524;2022-07-18T04:08:50;3.03;;;2.35;;
67816;SDS011;54614;47.576;7.524;2022-07-18T04:11:16;3.20;;;2.40;;
67816;SDS011;54614;47.576;7.524;2022-07-18T04:13:44;3.10;;;2.45;;
67816;SDS011;54614;47.576;7.524;2022-07-18T04:16:10;3.83;;;2.80;;
67816;SDS011;54614;47.576;7.524;2022-07-18T04:18:36;4.13;;;2.60;;
67816;SDS011;54614;47.576;7.524;2022-07-18T04:21:02;4.88;;;2.50;;
67816;SDS011;54614;47.576;7.524;2022-07-18T04:23:28;3.08;;;2.60;;
67816;SDS011;54614;47.576;7.524;2022-07-18T04:25:54;3.10;;;2.80;;
67816;SDS011;54614;47.576;7.524;2022-07-18T04:28:19;3.78;;;2.30;;
67816;SDS011;54614;47.576;7.524;2022-07-18T04:30:45;4.45;;;2.70;;
67816;SDS011;54614;47.576;7.524;2022-07-18T04:33:12;10.65;;;2.60;;
67816;SDS011;54614;47.576;7.524;2022-07-18T04:35:38;4.80;;;2.70;;
67816;SDS011;54614;47.576;7.524;2022-07-18T04:38:06;4.95;;;2.67;;
67816;SDS011;54614;47.576;7.524;2022-07-18T04:40:35;3.85;;;2.78;;
67816;SDS011;54614;47.576;7.524;2022-07-18T04:43:03;4.10;;;2.75;;
67816;SDS011;54614;47.576;7.524;2022-07-18T04:45:30;6.00;;;2.50;;
67816;SDS011;54614;47.576;7.524;2022-07-18T04:47:57;5.13;;;2.70;;
67816;SDS011;54614;47.576;7.524;2022-07-18T04:50:23;5.05;;;2.65;;
67816;SDS011;54614;47.576;7.524;2022-07-18T04:52:50;3.60;;;2.70;;
67816;SDS011;54614;47.576;7.524;2022-07-18T04:55:18;6.95;;;2.50;;
67816;SDS011;54614;47.576;7.524;2022-07-18T04:57:46;4.57;;;2.80;;
67816;SDS011;54614;47.576;7.524;2022-07-18T05:00:16;4.03;;;2.80;;
67816;SDS011;54614;47.576;7.524;2022-07-18T05:02:47;3.17;;;2.87;;
67816;SDS011;54614;47.576;7.524;2022-07-18T05:05:16;5.13;;;3.20;;
67816;SDS011;54614;47.576;7.524;2022-07-18T05:07:44;5.77;;;3.20;;
67816;SDS011;54614;47.576;7.524;2022-07-18T05:10:14;4.50;;;3.13;;
67816;SDS011;54614;47.576;7.524;2022-07-18T05:12:42;4.93;;;2.95;;
67816;SDS011;54614;47.576;7.524;2022-07-18T05:15:11;4.20;;;2.90;;
67816;SDS011;54614;47.576;7.524;2022-07-18T05:17:39;6.07;;;3.63;;
67816;SDS011;54614;47.576;7.524;2022-07-18T05:20:07;7.83;;;3.60;;
67816;SDS011;54614;47.576;7.524;2022-07-18T05:22:36;3.40;;;3.10;;
67816;SDS011;54614;47.576;7.524;2022-07-18T05:25:03;5.43;;;3.50;;
67816;SDS011;54614;47.576;7.524;2022-07-18T05:27:31;6.70;;;3.50;;
67816;SDS011;54614;47.576;7.524;2022-07-18T05:29:57;5.87;;;3.57;;
67816;SDS011;54614;47.576;7.524;2022-07-18T05:32:26;6.05;;;3.40;;
67816;SDS011;54614;47.576;7.524;2022-07-18T05:34:53;5.60;;;3.60;;
67816;SDS011;54614;47.576;7.524;2022-07-18T05:37:20;4.40;;;3.40;;
67816;SDS011;54614;47.576;7.524;2022-07-18T05:39:46;5.73;;;3.97;;
67816;SDS011;54614;47.576;7.524;2022-07-18T05:42:12;5.83;;;3.73;;
67816;SDS011;54614;47.576;7.524;2022-07-18T05:44:38;6.00;;;3.80;;
67816;SDS011;54614;47.576;7.524;2022-07-18T05:47:04;8.40;;;3.90;;
67816;SDS011;54614;47.576;7.524;2022-07-18T05:49:30;5.17;;;4.17;;
67816;SDS011;54614;47.576;7.524;2022-07-18T05:51:56;6.23;;;4.40;;
67816;SDS011;54614;47.576;7.524;2022-07-18T05:54:22;5.83;;;4.33;;
67816;SDS011;54614;47.576;7.524;2022-07-18T05:56:51;9.27;;;4.23;;
67816;SDS011;54614;47.576;7.524;2022-07-18T05:59:18;6.15;;;4.40;;
67816;SDS011;54614;47.576;7.524;2022-07-18T06:01:46;7.07;;;4.50;;
67816;SDS011;54614;47.576;7.524;2022-07-18T06:04:12;5.00;;;4.23;;
67816;SDS011;54614;47.576;7.524;2022-07-18T06:06:38;6.07;;;4.20;;
67816;SDS011;54614;47.576;7.524;2022-07-18T06:09:05;5.57;;;4.40;;
67816;SDS011;54614;47.576;7.524;2022-07-18T06:11:33;6.67;;;4.37;;
67816;SDS011;54614;47.576;7.524;2022-07-18T06:13:59;9.73;;;4.70;;
67816;SDS011;54614;47.576;7.524;2022-07-18T06:16:27;7.77;;;5.10;;
67816;SDS011;54614;47.576;7.524;2022-07-18T06:18:55;8.53;;;4.50;;
67816;SDS011;54614;47.576;7.524;2022-07-18T06:21:21;7.67;;;4.50;;
67816;SDS011;54614;47.576;7.524;2022-07-18T06:23:48;9.37;;;4.03;;
67816;SDS011;54614;47.576;7.524;2022-07-18T06:26:14;9.70;;;4.53;;
67816;SDS011;54614;47.576;7.524;2022-07-18T06:28:40;11.70;;;4.40;;
67816;SDS011;54614;47.576;7.524;2022-07-18T06:31:06;8.05;;;4.18;;
67816;SDS011;54614;47.576;7.524;2022-07-18T06:33:32;10.67;;;4.33;;
67816;SDS011;54614;47.576;7.524;2022-07-18T06:35:58;9.47;;;4.80;;
67816;SDS011;54614;47.576;7.524;2022-07-18T06:38:24;9.27;;;4.68;;
67816;SDS011;54614;47.576;7.524;2022-07-18T06:40:49;9.05;;;5.05;;
67816;SDS011;54614;47.576;7.524;2022-07-18T06:43:15;8.00;;;4.30;;
67816;SDS011;54614;47.576;7.524;2022-07-18T06:45:45;9.95;;;4.32;;
67816;SDS011;54614;47.576;7.524;2022-07-18T06:48:13;5.40;;;3.92;;
67816;SDS011;54614;47.576;7.524;2022-07-18T06:50:40;9.40;;;3.83;;
67816;SDS011;54614;47.576;7.524;2022-07-18T06:53:06;7.40;;;3.70;;
67816;SDS011;54614;47.576;7.524;2022-07-18T06:55:33;4.28;;;3.88;;
67816;SDS011;54614;47.576;7.524;2022-07-18T06:57:58;5.07;;;3.80;;
67816;SDS011;54614;47.576;7.524;2022-07-18T07:00:24;8.52;;;3.75;;
67816;SDS011;54614;47.576;7.524;2022-07-18T07:02:51;5.80;;;3.80;;
67816;SDS011;54614;47.576;7.524;2022-07-18T07:05:18;8.10;;;3.97;;
67816;SDS011;54614;47.576;7.524;2022-07-18T07:07:46;5.15;;;4.18;;
67816;SDS011;54614;47.576;7.524;2022-07-18T07:10:14;5.68;;;3.70;;
67816;SDS011;54614;47.576;7.524;2022-07-18T07:12:46;9.43;;;3.70;;
67816;SDS011;54614;47.576;7.524;2022-07-18T07:15:15;5.63;;;3.55;;
67816;SDS011;54614;47.576;7.524;2022-07-18T07:17:46;3.80;;;3.40;;
67816;SDS011;54614;47.576;7.524;2022-07-18T07:20:12;5.05;;;3.85;;
67816;SDS011;54614;47.576;7.524;2022-07-18T07:22:45;6.07;;;3.72;;
67816;SDS011;54614;47.576;7.524;2022-07-18T07:25:19;5.28;;;3.60;;
67816;SDS011;54614;47.576;7.524;2022-07-18T07:27:48;5.93;;;3.58;;
67816;SDS011;54614;47.576;7.524;2022-07-18T07:30:14;4.80;;;3.53;;
67816;SDS011;54614;47.576;7.524;2022-07-18T07:32:41;6.05;;;3.38;;
67816;SDS011;54614;47.576;7.524;2022-07-18T07:35:11;5.50;;;3.45;;
67816;SDS011;54614;47.576;7.524;2022-07-18T07:37:39;5.63;;;3.70;;
67816;SDS011;54614;47.576;7.524;2022-07-18T07:40:09;4.85;;;3.30;;
67816;SDS011;54614;47.576;7.524;2022-07-18T07:42:36;6.18;;;3.47;;
67816;SDS011;54614;47.576;7.524;2022-07-18T07:45:03;4.72;;;3.70;;
67816;SDS011;54614;47.576;7.524;2022-07-18T07:47:30;4.72;;;3.50;;
67816;SDS011;54614;47.576;7.524;2022-07-18T07:49:57;5.15;;;3.47;;
67816;SDS011;54614;47.576;7.524;2022-07-18T07:52:23;6.25;;;3.42;;
67816;SDS011;54614;47.576;7.524;2022-07-18T07:54:50;4.80;;;3.40;;
67816;SDS011;54614;47.576;7.524;2022-07-18T07:57:16;4.72;;;3.35;;
67816;SDS011;54614;47.576;7.524;2022-07-18T07:59:42;4.93;;;3.67;;
67816;SDS011;54614;47.576;7.524;2022-07-18T08:02:08;4.53;;;3.40;;
67816;SDS011;54614;47.576;7.524;2022-07-18T08:04:35;3.78;;;3.38;;
67816;SDS011;54614;47.576;7.524;2022-07-18T08:07:01;3.60;;;3.30;;
67816;SDS011;54614;47.576;7.524;2022-07-18T08:09:27;4.43;;;3.67;;
67816;SDS011;54614;47.576;7.524;2022-07-18T08:11:54;4.80;;;3.40;;
67816;SDS011;54614;47.576;7.524;2022-07-18T08:14:21;8.02;;;3.60;;
67816;SDS011;54614;47.576;7.524;2022-07-18T08:16:47;4.00;;;3.50;;
67816;SDS011;54614;47.576;7.524;2022-07-18T08:19:13;3.85;;;3.20;;
67816;SDS011;54614;47.576;7.524;2022-07-18T08:21:38;4.60;;;3.28;;
67816;SDS011;54614;47.576;7.524;2022-07-18T08:24:04;4.88;;;3.40;;
67816;SDS011;54614;47.576;7.524;2022-07-18T08:26:30;7.18;;;3.33;;
67816;SDS011;54614;47.576;7.524;2022-07-18T08:28:59;5.32;;;3.35;;
67816;SDS011;54614;47.576;7.524;2022-07-18T08:31:25;4.70;;;3.17;;
67816;SDS011;54614;47.576;7.524;2022-07-18T08:33:50;5.80;;;3.22;;
67816;SDS011;54614;47.576;7.524;2022-07-18T08:36:16;4.90;;;3.42;;
67816;SDS011;54614;47.576;7.524;2022-07-18T08:38:42;5.22;;;3.47;;
67816;SDS011;54614;47.576;7.524;2022-07-18T08:41:08;5.32;;;3.50;;
67816;SDS011;54614;47.576;7.524;2022-07-18T08:43:35;5.03;;;3.17;;
67816;SDS011;54614;47.576;7.524;2022-07-18T08:46:02;7.00;;;3.30;;
67816;SDS011;54614;47.576;7.524;2022-07-18T08:48:31;4.72;;;3.13;;
67816;SDS011;54614;47.576;7.524;2022-07-18T08:50:59;3.50;;;3.20;;
67816;SDS011;54614;47.576;7.524;2022-07-18T08:53:26;4.88;;;3.50;;
67816;SDS011;54614;47.576;7.524;2022-07-18T08:55:53;4.97;;;3.17;;
67816;SDS011;54614;47.576;7.524;2022-07-18T08:58:19;4.43;;;3.10;;
67816;SDS011;54614;47.576;7.524;2022-07-18T09:00:46;4.45;;;3.20;;
67816;SDS011;54614;47.576;7.524;2022-07-18T09:03:13;6.35;;;3.13;;
67816;SDS011;54614;47.576;7.524;2022-07-18T09:05:39;4.53;;;3.10;;
67816;SDS011;54614;47.576;7.524;2022-07-18T09:08:13;7.03;;;3.00;;
67816;SDS011;54614;47.576;7.524;2022-07-18T09:13:23;7.95;;;3.10;;
67816;SDS011;54614;47.576;7.524;2022-07-18T09:16:10;3.72;;;2.88;;
67816;SDS011;54614;47.576;7.524;2022-07-18T09:18:40;4.05;;;3.15;;
67816;SDS011;54614;47.576;7.524;2022-07-18T09:23:39;3.67;;;3.03;;
67816;SDS011;54614;47.576;7.524;2022-07-18T09:26:10;4.15;;;2.95;;
67816;SDS011;54614;47.576;7.524;2022-07-18T09:28:50;3.50;;;2.90;;
67816;SDS011;54614;47.576;7.524;2022-07-18T09:31:23;4.70;;;3.15;;
67816;SDS011;54614;47.576;7.524;2022-07-18T09:33:57;4.80;;;3.03;;
67816;SDS011;54614;47.576;7.524;2022-07-18T09:36:26;4.57;;;3.10;;
67816;SDS011;54614;47.576;7.524;2022-07-18T09:38:53;3.30;;;3.00;;
67816;SDS011;54614;47.576;7.524;2022-07-18T09:41:23;3.70;;;2.92;;
67816;SDS011;54614;47.576;7.524;2022-07-18T09:43:51;4.05;;;2.97;;
67816;SDS011;54614;47.576;7.524;2022-07-18T09:46:17;4.85;;;2.90;;
67816;SDS011;54614;47.576;7.524;2022-07-18T09:48:44;3.30;;;3.00;;
67816;SDS011;54614;47.576;7.524;2022-07-18T09:51:11;3.50;;;3.20;;
67816;SDS011;54614;47.576;7.524;2022-07-18T09:53:40;3.17;;;2.85;;
67816;SDS011;54614;47.576;7.524;2022-07-18T09:56:09;2.95;;;2.70;;
67816;SDS011;54614;47.576;7.524;2022-07-18T09:58:51;2.90;;;2.70;;
67816;SDS011;54614;47.576;7.524;2022-07-18T10:01:20;3.00;;;2.70;;
67816;SDS011;54614;47.576;7.524;2022-07-18T10:03:49;6.57;;;2.88;;
67816;SDS011;54614;47.576;7.524;2022-07-18T10:06:15;3.13;;;2.83;;
67816;SDS011;54614;47.576;7.524;2022-07-18T10:08:43;3.55;;;2.80;;
67816;SDS011;54614;47.576;7.524;2022-07-18T10:11:09;3.08;;;2.78;;
67816;SDS011;54614;47.576;7.524;2022-07-18T10:13:36;3.05;;;2.75;;
67816;SDS011;54614;47.576;7.524;2022-07-18T10:16:03;3.17;;;2.88;;
67816;SDS011;54614;47.576;7.524;2022-07-18T10:18:31;3.25;;;2.95;;
67816;SDS011;54614;47.576;7.524;2022-07-18T10:26:16;4.68;;;2.85;;
67816;SDS011;54614;47.576;7.524;2022-07-18T10:31:28;4.55;;;2.92;;
67816;SDS011;54614;47.576;7.524;2022-07-18T10:39:15;3.45;;;2.50;;
67816;SDS011;54614;47.576;7.524;2022-07-18T10:57:37;3.20;;;2.90;;
67816;SDS011;54614;47.576;7.524;2022-07-18T11:02:40;2.85;;;2.65;;
67816;SDS011;54614;47.576;7.524;2022-07-18T11:13:22;2.75;;;2.55;;
67816;SDS011;54614;47.576;7.524;2022-07-18T11:15:59;4.00;;;2.72;;
67816;SDS011;54614;47.576;7.524;2022-07-18T11:18:31;3.08;;;2.60;;
67816;SDS011;54614;47.576;7.524;2022-07-18T11:21:22;2.80;;;2.60;;
67816;SDS011;54614;47.576;7.524;2022-07-18T11:23:59;3.10;;;2.80;;
67816;SDS011;54614;47.576;7.524;2022-07-18T11:26:38;3.00;;;2.80;;
67816;SDS011;54614;47.576;7.524;2022-07-18T11:29:10;3.92;;;2.60;;
67816;SDS011;54614;47.576;7.524;2022-07-18T11:31:44;3.05;;;2.80;;
67816;SDS011;54614;47.576;7.524;2022-07-18T11:34:16;3.58;;;2.70;;
67816;SDS011;54614;47.576;7.524;2022-07-18T11:36:44;3.35;;;2.90;;
67816;SDS011;54614;47.576;7.524;2022-07-18T11:39:12;2.88;;;2.50;;
67816;SDS011;54614;47.576;7.524;2022-07-18T11:41:39;2.90;;;2.70;;
67816;SDS011;54614;47.576;7.524;2022-07-18T11:44:15;4.35;;;2.45;;
67816;SDS011;54614;47.576;7.524;2022-07-18T11:46:43;3.10;;;2.80;;
67816;SDS011;54614;47.576;7.524;2022-07-18T11:49:10;2.50;;;2.30;;
67816;SDS011;54614;47.576;7.524;2022-07-18T11:51:38;2.83;;;2.63;;
67816;SDS011;54614;47.576;7.524;2022-07-18T11:54:10;2.60;;;2.40;;
67816;SDS011;54614;47.576;7.524;2022-07-18T11:56:47;3.22;;;2.50;;
67816;SDS011;54614;47.576;7.524;2022-07-18T11:59:16;3.22;;;2.40;;
67816;SDS011;54614;47.576;7.524;2022-07-18T12:01:43;2.50;;;2.30;;
67816;SDS011;54614;47.576;7.524;2022-07-18T12:04:20;2.72;;;2.30;;
67816;SDS011;54614;47.576;7.524;2022-07-18T12:09:49;2.70;;;2.50;;
67816;SDS011;54614;47.576;7.524;2022-07-18T12:12:17;3.17;;;2.80;;
67816;SDS011;54614;47.576;7.524;2022-07-18T12:14:58;2.90;;;2.60;;
67816;SDS011;54614;47.576;7.524;2022-07-18T12:17:27;2.80;;;2.60;;
67816;SDS011;54614;47.576;7.524;2022-07-18T12:20:09;3.45;;;2.53;;
67816;SDS011;54614;47.576;7.524;2022-07-18T12:25:38;3.67;;;2.50;;
67816;SDS011;54614;47.576;7.524;2022-07-18T12:28:15;2.47;;;2.25;;
67816;SDS011;54614;47.576;7.524;2022-07-18T12:30:46;3.05;;;2.55;;
67816;SDS011;54614;47.576;7.524;2022-07-18T12:33:12;2.65;;;2.45;;
67816;SDS011;54614;47.576;7.524;2022-07-18T12:35:39;2.60;;;2.40;;
67816;SDS011;54614;47.576;7.524;2022-07-18T12:43:37;2.60;;;2.40;;
67816;SDS011;54614;47.576;7.524;2022-07-18T12:46:10;2.80;;;2.60;;
67816;SDS011;54614;47.576;7.524;2022-07-18T12:48:36;2.70;;;2.50;;
67816;SDS011;54614;47.576;7.524;2022-07-18T12:51:04;2.55;;;2.35;;
67816;SDS011;54614;47.576;7.524;2022-07-18T12:53:39;2.60;;;2.40;;
67816;SDS011;54614;47.576;7.524;2022-07-18T12:56:08;2.70;;;2.50;;
67816;SDS011;54614;47.576;7.524;2022-07-18T12:58:36;2.40;;;2.25;;
67816;SDS011;54614;47.576;7.524;2022-07-18T13:01:02;2.90;;;2.67;;
67816;SDS011;54614;47.576;7.524;2022-07-18T13:03:29;2.35;;;2.20;;
67816;SDS011;54614;47.576;7.524;2022-07-18T13:05:55;2.60;;;2.40;;
67816;SDS011;54614;47.576;7.524;2022-07-18T13:08:21;2.60;;;2.40;;
67816;SDS011;54614;47.576;7.524;2022-07-18T13:10:48;2.60;;;2.40;;
67816;SDS011;54614;47.576;7.524;2022-07-18T13:13:15;2.50;;;2.30;;
67816;SDS011;54614;47.576;7.524;2022-07-18T13:15:41;2.40;;;2.20;;
67816;SDS011;54614;47.576;7.524;2022-07-18T13:18:07;2.55;;;2.35;;
67816;SDS011;54614;47.576;7.524;2022-07-18T13:20:33;2.47;;;2.28;;
67816;SDS011;54614;47.576;7.524;2022-07-18T13:23:00;3.55;;;2.60;;
67816;SDS011;54614;47.576;7.524;2022-07-18T13:25:27;2.10;;;2.00;;
67816;SDS011;54614;47.576;7.524;2022-07-18T13:27:53;2.60;;;2.40;;
67816;SDS011;54614;47.576;7.524;2022-07-18T13:30:19;2.50;;;2.30;;
67816;SDS011;54614;47.576;7.524;2022-07-18T13:32:45;2.35;;;2.25;;
67816;SDS011;54614;47.576;7.524;2022-07-18T13:35:11;3.08;;;2.53;;
67816;SDS011;54614;47.576;7.524;2022-07-18T13:37:38;2.50;;;2.30;;
67816;SDS011;54614;47.576;7.524;2022-07-18T13:40:05;2.60;;;2.40;;
67816;SDS011;54614;47.576;7.524;2022-07-18T13:42:32;2.65;;;2.45;;
67816;SDS011;54614;47.576;7.524;2022-07-18T13:44:58;2.67;;;2.47;;
67816;SDS011;54614;47.576;7.524;2022-07-18T13:47:24;2.58;;;2.38;;
67816;SDS011;54614;47.576;7.524;2022-07-18T13:49:50;2.50;;;2.30;;
67816;SDS011;54614;47.576;7.524;2022-07-18T13:52:16;2.40;;;2.28;;
67816;SDS011;54614;47.576;7.524;2022-07-18T13:54:42;2.60;;;2.40;;
67816;SDS011;54614;47.576;7.524;2022-07-18T13:57:09;2.60;;;2.40;;
67816;SDS011;54614;47.576;7.524;2022-07-18T13:59:34;2.70;;;2.50;;
67816;SDS011;54614;47.576;7.524;2022-07-18T14:02:00;2.53;;;2.33;;
67816;SDS011;54614;47.576;7.524;2022-07-18T14:04:26;2.30;;;2.20;;
67816;SDS011;54614;47.576;7.524;2022-07-18T14:06:52;3.42;;;2.40;;
67816;SDS011;54614;47.576;7.524;2022-07-18T14:09:18;2.40;;;2.20;;
67816;SDS011;54614;47.576;7.524;2022-07-18T14:11:44;2.60;;;2.38;;
67816;SDS011;54614;47.576;7.524;2022-07-18T14:14:10;2.40;;;2.20;;
67816;SDS011;54614;47.576;7.524;2022-07-18T14:16:36;2.55;;;2.22;;
67816;SDS011;54614;47.576;7.524;2022-07-18T14:19:02;2.50;;;2.30;;
67816;SDS011;54614;47.576;7.524;2022-07-18T14:21:29;2.20;;;2.10;;
67816;SDS011;54614;47.576;7.524;2022-07-18T14:23:56;2.58;;;2.38;;
67816;SDS011;54614;47.576;7.524;2022-07-18T14:26:22;2.42;;;2.22;;
67816;SDS011;54614;47.576;7.524;2022-07-18T14:28:50;2.50;;;2.30;;
67816;SDS011;54614;47.576;7.524;2022-07-18T14:31:17;2.28;;;2.17;;
67816;SDS011;54614;47.576;7.524;2022-07-18T14:33:43;2.20;;;2.10;;
67816;SDS011;54614;47.576;7.524;2022-07-18T14:36:09;2.50;;;2.30;;
67816;SDS011;54614;47.576;7.524;2022-07-18T14:38:35;2.42;;;2.22;;
67816;SDS011;54614;47.576;7.524;2022-07-18T14:41:00;2.50;;;2.30;;
67816;SDS011;54614;47.576;7.524;2022-07-18T14:43:26;2.10;;;2.00;;
67816;SDS011;54614;47.576;7.524;2022-07-18T14:45:52;2.67;;;2.47;;
67816;SDS011;54614;47.576;7.524;2022-07-18T14:48:18;2.50;;;2.30;;
67816;SDS011;54614;47.576;7.524;2022-07-18T14:50:44;2.58;;;2.38;;
67816;SDS011;54614;47.576;7.524;2022-07-18T14:53:10;3.33;;;2.40;;
67816;SDS011;54614;47.576;7.524;2022-07-18T14:55:36;2.35;;;2.15;;
67816;SDS011;54614;47.576;7.524;2022-07-18T14:58:03;2.47;;;2.28;;
67816;SDS011;54614;47.576;7.524;2022-07-18T15:00:29;2.20;;;2.10;;
67816;SDS011;54614;47.576;7.524;2022-07-18T15:02:55;2.22;;;2.13;;
67816;SDS011;54614;47.576;7.524;2022-07-18T15:05:21;2.28;;;2.17;;
67816;SDS011;54614;47.576;7.524;2022-07-18T15:07:47;2.30;;;2.20;;
67816;SDS011;54614;47.576;7.524;2022-07-18T15:10:12;2.25;;;2.15;;
67816;SDS011;54614;47.576;7.524;2022-07-18T15:12:39;2.45;;;2.33;;
67816;SDS011;54614;47.576;7.524;2022-07-18T15:15:06;2.60;;;2.40;;
67816;SDS011;54614;47.576;7.524;2022-07-18T15:17:33;2.60;;;2.40;;
67816;SDS011;54614;47.576;7.524;2022-07-18T15:20:09;2.30;;;2.10;;
67816;SDS011;54614;47.576;7.524;2022-07-18T15:22:36;2.55;;;2.35;;
67816;SDS011;54614;47.576;7.524;2022-07-18T15:25:03;2.20;;;2.10;;
67816;SDS011;54614;47.576;7.524;2022-07-18T15:27:30;2.50;;;2.10;;
67816;SDS011;54614;47.576;7.524;2022-07-18T15:29:56;2.10;;;2.00;;
67816;SDS011;54614;47.576;7.524;2022-07-18T15:32:23;2.65;;;2.33;;
67816;SDS011;54614;47.576;7.524;2022-07-18T15:34:49;2.40;;;2.20;;
67816;SDS011;54614;47.576;7.524;2022-07-18T15:37:15;3.45;;;2.28;;
67816;SDS011;54614;47.576;7.524;2022-07-18T15:39:41;2.65;;;2.40;;
67816;SDS011;54614;47.576;7.524;2022-07-18T15:42:06;2.38;;;2.28;;
67816;SDS011;54614;47.576;7.524;2022-07-18T15:44:32;2.50;;;2.30;;
67816;SDS011;54614;47.576;7.524;2022-07-18T15:47:07;2.50;;;2.35;;